createdAt,value
2019-01-13T00:04:53.002Z,2.12
2019-01-13T00:07:35.030Z,1.40
2019-01-13T00:10:16.921Z,1.80
2019-01-13T00:12:59.548Z,1.45
2019-01-13T00:15:42.241Z,1.45
2019-01-13T00:18:24.274Z,2.05
2019-01-13T00:21:06.436Z,2.05
2019-01-13T00:23:49.646Z,1.72
2019-01-13T00:26:32.925Z,1.22
2019-01-13T00:29:15.163Z,1.75
2019-01-13T00:31:58.022Z,1.72
2019-01-13T00:34:40.319Z,1.50
2019-01-13T00:37:22.141Z,1.67
2019-01-13T00:40:04.106Z,1.72
2019-01-13T00:42:46.328Z,1.70
2019-01-13T00:45:28.549Z,1.70
2019-01-13T00:48:10.511Z,1.37
2019-01-13T00:50:52.789Z,1.45
2019-01-13T00:53:35.109Z,1.45
2019-01-13T00:56:17.467Z,1.75
2019-01-13T00:58:59.776Z,1.65
2019-01-13T01:01:41.848Z,1.55
2019-01-13T01:04:24.069Z,1.50
2019-01-13T01:07:06.489Z,1.60
2019-01-13T01:09:48.680Z,1.70
2019-01-13T01:12:30.941Z,1.20
2019-01-13T01:15:12.747Z,1.40
2019-01-13T01:17:54.989Z,1.40
2019-01-13T01:20:37.034Z,1.60
2019-01-13T01:23:19.454Z,1.65
2019-01-13T01:26:01.258Z,1.62
2019-01-13T01:28:44.474Z,2.02
2019-01-13T01:31:26.846Z,1.32
2019-01-13T01:34:09.047Z,1.80
2019-01-13T01:36:51.375Z,1.40
2019-01-13T01:39:33.508Z,1.40
2019-01-13T01:42:15.444Z,1.70
2019-01-13T01:44:58.640Z,1.80
2019-01-13T01:47:40.417Z,1.65
2019-01-13T01:50:22.555Z,1.87
2019-01-13T01:53:06.391Z,1.77
2019-01-13T01:55:48.536Z,1.65
2019-01-13T01:58:31.619Z,2.25
2019-01-13T02:01:14.275Z,1.92
2019-01-13T02:03:56.701Z,3.00
2019-01-13T02:06:38.847Z,2.40
2019-01-13T02:09:20.643Z,1.70
2019-01-13T02:12:02.715Z,1.60
2019-01-13T02:14:44.813Z,1.20
2019-01-13T02:17:27.498Z,1.40
2019-01-13T02:20:10.121Z,1.50
2019-01-13T02:22:52.804Z,1.50
2019-01-13T02:25:34.719Z,1.90
2019-01-13T02:28:16.585Z,1.70
2019-01-13T02:30:58.740Z,1.50
2019-01-13T02:33:40.514Z,1.60
2019-01-13T02:36:22.840Z,1.90
2019-01-13T02:39:05.454Z,1.90
2019-01-13T02:41:48.055Z,1.80
2019-01-13T02:44:29.946Z,1.60
2019-01-13T02:47:12.280Z,1.75
2019-01-13T02:49:54.507Z,1.75
2019-01-13T02:52:36.603Z,1.85
2019-01-13T02:55:19.528Z,1.80
2019-01-13T02:58:02.577Z,1.52
2019-01-13T03:00:45.109Z,2.05
2019-01-13T03:03:27.017Z,2.25
2019-01-13T03:06:09.857Z,2.00
2019-01-13T03:08:52.338Z,1.98
2019-01-13T03:11:34.892Z,2.10
2019-01-13T03:14:16.543Z,2.37
2019-01-13T03:16:59.004Z,2.10
2019-01-13T03:19:41.043Z,2.70
2019-01-13T03:22:23.337Z,2.00
2019-01-13T03:25:05.619Z,2.30
2019-01-13T03:27:46.799Z,2.22
2019-01-13T03:37:08.314Z,2.12
2019-01-13T03:39:59.646Z,2.00
2019-01-13T03:46:38.405Z,2.58
2019-01-13T03:49:47.452Z,2.30
2019-01-13T03:52:56.516Z,2.50
2019-01-13T03:56:05.595Z,2.40
2019-01-13T04:02:44.232Z,2.25
2019-01-13T04:05:33.804Z,2.60
2019-01-13T04:08:23.381Z,2.55
2019-01-13T04:11:32.407Z,2.10
2019-01-13T04:14:41.903Z,2.10
2019-01-13T04:17:51.038Z,2.10
2019-01-13T04:23:42.125Z,2.27
2019-01-13T04:26:44.251Z,2.17
2019-01-13T04:29:26.332Z,2.33
2019-01-13T04:32:08.290Z,2.00
2019-01-13T04:34:50.480Z,2.10
2019-01-13T04:37:32.258Z,2.00
2019-01-13T04:40:14.301Z,2.00
2019-01-13T04:42:56.536Z,2.47
2019-01-13T04:45:38.326Z,2.15
2019-01-13T04:48:20.377Z,2.30
2019-01-13T04:51:02.821Z,3.72
2019-01-13T04:53:44.831Z,3.70
2019-01-13T04:56:27.229Z,2.83
2019-01-13T04:59:09.771Z,3.60
2019-01-13T05:01:51.864Z,3.08
2019-01-13T05:04:34.205Z,3.27
2019-01-13T05:07:16.724Z,2.98
2019-01-13T05:09:58.716Z,2.00
2019-01-13T05:12:41.039Z,2.30
2019-01-13T05:15:22.988Z,2.65
2019-01-13T05:18:05.150Z,2.90
2019-01-13T05:20:47.197Z,2.40
2019-01-13T05:23:29.271Z,2.25
2019-01-13T05:26:11.696Z,2.55
2019-01-13T05:28:53.845Z,2.70
2019-01-13T05:31:41.864Z,2.37
2019-01-13T05:34:19.601Z,2.65
2019-01-13T05:37:01.381Z,2.22
2019-01-13T05:39:44.197Z,2.47
2019-01-13T05:42:26.353Z,2.90
2019-01-13T05:45:08.534Z,2.60
2019-01-13T05:47:50.404Z,2.40
2019-01-13T05:50:32.683Z,2.00
2019-01-13T05:53:14.789Z,2.33
2019-01-13T05:55:56.592Z,2.75
2019-01-13T05:58:39.280Z,2.55
2019-01-13T06:01:21.487Z,2.50
2019-01-13T06:04:04.009Z,2.40
2019-01-13T06:06:46.025Z,2.00
2019-01-13T06:09:28.569Z,2.35
2019-01-13T06:12:10.588Z,2.62
2019-01-13T06:14:52.367Z,1.72
2019-01-13T06:17:34.641Z,2.00
2019-01-13T06:20:16.440Z,2.10
2019-01-13T06:22:58.506Z,1.90
2019-01-13T06:25:41.019Z,1.90
2019-01-13T06:28:22.833Z,1.60
2019-01-13T06:31:05.173Z,1.77
2019-01-13T06:33:47.236Z,2.00
2019-01-13T06:36:29.382Z,1.75
2019-01-13T06:39:11.555Z,1.70
2019-01-13T06:41:53.446Z,1.60
2019-01-13T06:44:35.581Z,2.30
2019-01-13T06:47:17.773Z,2.20
2019-01-13T06:50:00.315Z,1.90
2019-01-13T06:52:42.995Z,2.35
2019-01-13T06:55:24.993Z,1.92
2019-01-13T06:58:07.029Z,1.70
2019-01-13T07:00:48.969Z,1.82
2019-01-13T07:03:31.565Z,1.80
2019-01-13T07:06:14.115Z,1.82
2019-01-13T07:08:56.243Z,1.75
2019-01-13T07:11:38.358Z,1.80
2019-01-13T07:14:20.804Z,1.95
2019-01-13T07:17:02.896Z,1.90
2019-01-13T07:19:45.259Z,2.42
2019-01-13T07:22:28.250Z,2.00
2019-01-13T07:25:10.225Z,2.12
2019-01-13T07:27:52.522Z,2.10
2019-01-13T07:30:34.890Z,1.90
2019-01-13T07:33:16.933Z,2.17
2019-01-13T07:35:59.296Z,2.27
2019-01-13T07:38:41.446Z,2.70
2019-01-13T07:41:23.633Z,2.27
2019-01-13T07:44:05.395Z,2.55
2019-01-13T07:46:47.280Z,2.05
2019-01-13T07:49:29.204Z,2.12
2019-01-13T07:52:11.443Z,1.70
2019-01-13T07:54:54.293Z,2.17
2019-01-13T07:57:36.213Z,2.20
2019-01-13T08:00:19.556Z,2.45
2019-01-13T08:03:02.010Z,2.27
2019-01-13T08:05:43.853Z,2.22
2019-01-13T08:08:25.888Z,1.87
2019-01-13T08:11:08.283Z,1.90
2019-01-13T08:13:50.161Z,1.98
2019-01-13T08:16:32.091Z,2.10
2019-01-13T08:19:14.533Z,2.58
2019-01-13T08:21:58.003Z,3.27
2019-01-13T08:24:40.201Z,2.95
2019-01-13T08:27:22.555Z,1.95
2019-01-13T08:30:04.555Z,1.90
2019-01-13T08:32:46.812Z,2.20
2019-01-13T08:35:28.843Z,2.40
2019-01-13T08:38:11.389Z,2.60
2019-01-13T08:40:53.528Z,2.50
2019-01-13T08:43:35.654Z,2.87
2019-01-13T08:46:17.664Z,2.40
2019-01-13T08:48:59.632Z,3.05
2019-01-13T08:51:41.870Z,2.80
2019-01-13T08:54:25.015Z,2.97
2019-01-13T08:57:07.765Z,3.17
2019-01-13T08:59:49.742Z,4.20
2019-01-13T09:02:32.261Z,5.00
2019-01-13T09:05:14.444Z,4.70
2019-01-13T09:07:56.645Z,3.50
2019-01-13T09:10:39.341Z,3.42
2019-01-13T09:13:21.118Z,3.22
2019-01-13T09:16:04.126Z,4.00
2019-01-13T09:18:46.169Z,2.52
2019-01-13T09:21:28.881Z,2.37
2019-01-13T09:24:12.004Z,3.17
2019-01-13T09:26:55.321Z,1.90
2019-01-13T09:29:42.454Z,2.57
2019-01-13T09:32:21.124Z,2.63
2019-01-13T09:35:03.466Z,2.57
2019-01-13T09:37:45.921Z,2.23
2019-01-13T09:40:28.909Z,2.27
2019-01-13T09:43:11.852Z,1.55
2019-01-13T09:45:54.165Z,1.57
2019-01-13T09:48:36.686Z,1.65
2019-01-13T09:51:18.909Z,1.47
2019-01-13T09:54:01.865Z,1.30
2019-01-13T09:56:44.051Z,1.67
2019-01-13T09:59:27.033Z,1.47
2019-01-13T10:02:10.172Z,1.70
2019-01-13T10:04:52.433Z,1.60
2019-01-13T10:07:35.259Z,1.40
2019-01-13T10:10:18.052Z,1.80
2019-01-13T10:13:00.643Z,1.67
2019-01-13T10:15:42.880Z,1.93
2019-01-13T10:18:25.602Z,1.40
2019-01-13T10:21:07.765Z,1.10
2019-01-13T10:23:50.346Z,1.47
2019-01-13T10:26:32.325Z,1.50
2019-01-13T10:29:15.102Z,0.87
2019-01-13T10:31:57.241Z,1.10
2019-01-13T10:34:39.683Z,1.20
2019-01-13T10:37:23.561Z,0.95
2019-01-13T10:40:06.133Z,0.90
2019-01-13T10:42:48.649Z,1.50
2019-01-13T10:45:30.911Z,1.10
2019-01-13T10:48:13.494Z,1.20
2019-01-13T10:50:56.357Z,1.00
2019-01-13T10:53:39.345Z,1.00
2019-01-13T10:56:21.771Z,0.90
2019-01-13T10:59:04.203Z,1.00
2019-01-13T11:01:46.032Z,0.88
2019-01-13T11:04:27.972Z,1.20
2019-01-13T11:07:10.183Z,0.90
2019-01-13T11:09:52.546Z,0.72
2019-01-13T11:12:34.897Z,1.30
2019-01-13T11:15:21.424Z,1.20
2019-01-13T11:18:01.438Z,1.02
2019-01-13T11:20:43.949Z,0.98
2019-01-13T11:23:26.063Z,0.70
2019-01-13T11:26:08.374Z,0.62
2019-01-13T11:28:50.392Z,0.60
2019-01-13T11:31:32.369Z,0.47
2019-01-13T11:34:14.237Z,0.70
2019-01-13T11:36:56.177Z,0.65
2019-01-13T11:39:38.162Z,0.60
2019-01-13T11:42:20.149Z,0.70
2019-01-13T11:45:02.278Z,0.60
2019-01-13T11:47:44.735Z,0.68
2019-01-13T11:50:27.104Z,0.80
2019-01-13T11:53:09.597Z,1.00
2019-01-13T11:55:52.261Z,0.82
2019-01-13T11:58:34.364Z,0.70
2019-01-13T12:01:16.154Z,0.60
2019-01-13T12:03:59.271Z,0.70
2019-01-13T12:06:41.171Z,0.68
2019-01-13T12:09:23.482Z,0.57
2019-01-13T12:12:06.491Z,0.60
2019-01-13T12:14:49.090Z,0.65
2019-01-13T12:17:31.145Z,1.07
2019-01-13T12:20:13.398Z,0.70
2019-01-13T12:22:55.863Z,0.65
2019-01-13T12:25:38.659Z,0.50
2019-01-13T12:28:20.831Z,0.63
2019-01-13T12:31:03.152Z,0.93
2019-01-13T12:33:45.240Z,0.60
2019-01-13T12:36:27.272Z,0.60
2019-01-13T12:39:13.547Z,0.50
2019-01-13T12:41:55.947Z,0.50
2019-01-13T12:44:38.459Z,0.50
2019-01-13T12:47:25.821Z,0.60
2019-01-13T12:50:05.331Z,0.60
2019-01-13T12:52:48.543Z,0.70
2019-01-13T12:55:30.716Z,0.53
2019-01-13T12:58:12.741Z,0.70
2019-01-13T13:00:55.021Z,0.80
2019-01-13T13:03:36.829Z,0.78
2019-01-13T13:06:19.120Z,1.10
2019-01-13T13:09:01.999Z,1.42
2019-01-13T13:11:43.757Z,1.00
2019-01-13T13:14:26.339Z,0.93
2019-01-13T13:17:09.234Z,1.30
2019-01-13T13:19:51.642Z,1.30
2019-01-13T13:22:33.773Z,1.30
2019-01-13T13:25:16.393Z,0.80
2019-01-13T13:27:58.552Z,0.90
2019-01-13T13:30:40.875Z,0.70
2019-01-13T13:33:23.092Z,1.10
2019-01-13T13:36:07.487Z,1.00
2019-01-13T13:38:49.965Z,1.10
2019-01-13T13:41:32.663Z,1.03
2019-01-13T13:44:14.769Z,0.50
2019-01-13T13:46:56.877Z,0.60
2019-01-13T13:49:38.741Z,1.33
2019-01-13T13:52:21.148Z,1.00
2019-01-13T13:55:03.187Z,0.93
2019-01-13T13:57:45.679Z,0.65
2019-01-13T14:00:28.471Z,0.80
2019-01-13T14:03:10.572Z,0.70
2019-01-13T14:05:52.515Z,0.77
2019-01-13T14:08:36.016Z,0.50
2019-01-13T14:11:18.139Z,0.83
2019-01-13T14:14:00.049Z,0.70
2019-01-13T14:16:41.907Z,0.70
2019-01-13T14:19:24.286Z,0.55
2019-01-13T14:22:06.541Z,0.80
2019-01-13T14:24:49.220Z,0.70
2019-01-13T14:27:31.127Z,0.60
2019-01-13T14:30:14.698Z,0.53
2019-01-13T14:32:57.020Z,0.72
2019-01-13T14:35:39.572Z,0.63
2019-01-13T14:38:21.766Z,0.90
2019-01-13T14:41:03.476Z,0.90
2019-01-13T14:43:45.627Z,0.72
2019-01-13T14:46:28.088Z,0.70
2019-01-13T14:49:10.691Z,0.73
2019-01-13T14:51:53.171Z,1.30
2019-01-13T14:54:35.485Z,0.90
2019-01-13T14:57:18.274Z,1.30
2019-01-13T15:00:00.838Z,1.30
2019-01-13T15:02:42.763Z,0.73
2019-01-13T15:05:25.127Z,0.97
2019-01-13T15:08:07.018Z,0.90
2019-01-13T15:13:32.085Z,1.10
2019-01-13T15:16:14.075Z,0.60
2019-01-13T15:18:56.221Z,0.80
2019-01-13T15:21:38.390Z,0.60
2019-01-13T15:24:20.801Z,0.60
2019-01-13T15:27:02.995Z,0.90
2019-01-13T15:29:46.003Z,1.00
2019-01-13T15:32:28.039Z,0.83
2019-01-13T15:35:09.985Z,0.83
2019-01-13T15:37:52.908Z,0.57
2019-01-13T15:40:35.346Z,0.60
2019-01-13T15:43:17.988Z,0.87
2019-01-13T15:46:00.988Z,1.03
2019-01-13T15:48:43.557Z,1.42
2019-01-13T15:51:25.546Z,0.87
2019-01-13T15:54:07.630Z,0.77
2019-01-13T15:56:50.822Z,0.75
2019-01-13T15:59:33.057Z,0.80
2019-01-13T16:02:16.309Z,0.80
2019-01-13T16:04:58.274Z,0.80
2019-01-13T16:07:40.410Z,0.90
2019-01-13T16:10:22.516Z,2.23
2019-01-13T16:13:05.267Z,1.90
2019-01-13T16:15:48.609Z,1.93
2019-01-13T16:18:30.929Z,1.33
2019-01-13T16:21:13.586Z,1.37
2019-01-13T16:23:55.528Z,1.00
2019-01-13T16:26:37.582Z,1.30
2019-01-13T16:29:19.589Z,1.20
2019-01-13T16:32:01.827Z,1.33
2019-01-13T16:34:45.085Z,0.90
2019-01-13T16:37:27.912Z,1.00
2019-01-13T16:40:10.776Z,0.83
2019-01-13T16:42:53.175Z,0.70
2019-01-13T16:45:35.607Z,0.80
2019-01-13T16:48:17.784Z,1.10
2019-01-13T16:51:00.106Z,0.93
2019-01-13T16:53:43.432Z,1.10
2019-01-13T16:56:26.565Z,1.00
2019-01-13T16:59:09.651Z,1.00
2019-01-13T17:01:51.987Z,1.00
2019-01-13T17:04:33.921Z,1.10
2019-01-13T17:07:16.211Z,1.00
2019-01-13T17:09:58.469Z,1.27
2019-01-13T17:12:41.649Z,1.00
2019-01-13T17:15:24.442Z,1.47
2019-01-13T17:18:07.369Z,1.40
2019-01-13T17:20:49.602Z,1.87
2019-01-13T17:23:32.047Z,1.17
2019-01-13T17:26:14.239Z,1.13
2019-01-13T17:28:56.751Z,1.50
2019-01-13T17:31:39.464Z,0.90
2019-01-13T17:34:21.728Z,1.20
2019-01-13T17:37:03.921Z,1.30
2019-01-13T17:39:45.777Z,1.40
2019-01-13T17:42:27.799Z,1.27
2019-01-13T17:45:10.140Z,1.37
2019-01-13T17:47:52.511Z,1.10
2019-01-13T17:50:34.878Z,1.10
2019-01-13T17:53:17.623Z,1.20
2019-01-13T17:55:59.685Z,1.47
2019-01-13T17:58:42.299Z,1.30
2019-01-13T18:01:24.610Z,1.80
2019-01-13T18:04:07.042Z,1.43
2019-01-13T18:06:49.719Z,1.20
2019-01-13T18:09:32.554Z,1.50
2019-01-13T18:12:14.840Z,1.43
2019-01-13T18:14:57.360Z,1.40
2019-01-13T18:17:39.840Z,1.60
2019-01-13T18:20:23.175Z,1.50
2019-01-13T18:23:05.118Z,1.70
2019-01-13T18:25:47.327Z,1.60
2019-01-13T18:28:29.959Z,1.27
2019-01-13T18:31:11.644Z,1.50
2019-01-13T18:33:54.374Z,1.70
2019-01-13T18:36:36.931Z,1.27
2019-01-13T18:39:19.279Z,1.90
2019-01-13T18:42:01.367Z,1.83
2019-01-13T18:44:44.231Z,2.00
2019-01-13T18:47:26.498Z,1.27
2019-01-13T18:50:09.360Z,1.83
2019-01-13T18:52:51.429Z,1.77
2019-01-13T18:55:33.853Z,1.90
2019-01-13T18:58:15.811Z,2.00
2019-01-13T19:00:57.805Z,1.70
2019-01-13T19:03:40.298Z,2.03
2019-01-13T19:06:22.395Z,1.87
2019-01-13T19:09:05.778Z,2.10
2019-01-13T19:11:47.915Z,1.50
2019-01-13T19:14:30.835Z,1.50
2019-01-13T19:17:13.337Z,1.60
2019-01-13T19:19:55.263Z,1.60
2019-01-13T19:22:37.489Z,1.70
2019-01-13T19:25:19.800Z,1.20
2019-01-13T19:28:02.513Z,1.20
2019-01-13T19:30:44.700Z,1.60
2019-01-13T19:33:27.160Z,1.30
2019-01-13T19:36:09.431Z,1.80
2019-01-13T19:38:52.007Z,0.93
2019-01-13T19:41:34.274Z,1.50
2019-01-13T19:44:16.244Z,1.10
2019-01-13T19:46:58.447Z,1.50
2019-01-13T19:49:40.434Z,1.10
2019-01-13T19:52:22.988Z,1.10
2019-01-13T19:55:05.766Z,1.03
2019-01-13T19:57:48.728Z,1.00
2019-01-13T20:00:30.923Z,1.30
2019-01-13T20:03:13.324Z,1.17
2019-01-13T20:05:55.528Z,0.90
2019-01-13T20:08:37.473Z,1.30
2019-01-13T20:11:19.707Z,0.90
2019-01-13T20:14:01.834Z,1.20
2019-01-13T20:16:44.047Z,0.93
2019-01-13T20:19:26.280Z,0.90
2019-01-13T20:22:08.687Z,1.10
2019-01-13T20:24:50.696Z,0.70
2019-01-13T20:27:33.029Z,0.90
2019-01-13T20:30:15.408Z,0.70
2019-01-13T20:32:57.841Z,1.00
2019-01-13T20:35:40.293Z,1.03
2019-01-13T20:38:22.972Z,0.83
2019-01-13T20:41:05.364Z,0.87
2019-01-13T20:43:47.127Z,1.10
2019-01-13T20:46:29.143Z,0.90
2019-01-13T20:49:11.224Z,0.77
2019-01-13T20:51:53.742Z,0.80
2019-01-13T20:54:36.413Z,0.70
2019-01-13T20:57:18.702Z,0.60
2019-01-13T21:00:00.762Z,1.10
2019-01-13T21:02:42.815Z,0.87
2019-01-13T21:05:26.792Z,1.03
2019-01-13T21:08:08.601Z,0.90
2019-01-13T21:10:50.757Z,1.13
2019-01-13T21:13:32.991Z,1.53
2019-01-13T21:16:15.301Z,1.50
2019-01-13T21:18:57.281Z,1.40
2019-01-13T21:21:39.765Z,1.30
2019-01-13T21:24:22.353Z,1.60
2019-01-13T21:27:04.823Z,1.37
2019-01-13T21:29:47.204Z,1.67
2019-01-13T21:32:29.020Z,1.30
2019-01-13T21:35:11.001Z,0.90
2019-01-13T21:37:53.588Z,0.90
2019-01-13T21:40:36.033Z,1.00
2019-01-13T21:43:18.897Z,1.00
2019-01-13T21:46:00.768Z,0.73
2019-01-13T21:48:42.927Z,1.00
2019-01-13T21:51:24.929Z,0.80
2019-01-13T21:54:11.035Z,0.80
2019-01-13T21:56:52.184Z,1.17
2019-01-13T21:59:33.883Z,0.90
2019-01-13T22:02:16.479Z,1.27
2019-01-13T22:04:58.750Z,1.17
2019-01-13T22:07:40.833Z,0.87
2019-01-13T22:10:22.875Z,0.83
2019-01-13T22:13:05.148Z,1.10
2019-01-13T22:15:48.126Z,2.17
2019-01-13T22:18:30.704Z,1.67
2019-01-13T22:21:13.155Z,1.57
2019-01-13T22:23:55.165Z,1.20
2019-01-13T22:26:37.632Z,1.90
2019-01-13T22:29:19.423Z,1.57
2019-01-13T22:32:01.422Z,2.00
2019-01-13T22:34:43.428Z,1.80
2019-01-13T22:37:25.260Z,1.60
2019-01-13T22:40:07.911Z,1.00
2019-01-13T22:42:50.141Z,0.87
2019-01-13T22:45:30.892Z,0.80
2019-01-13T22:48:20.576Z,0.80
2019-01-13T22:51:24.628Z,1.00
2019-01-13T22:54:21.188Z,1.27
2019-01-13T23:01:37.703Z,0.70
2019-01-13T23:11:12.573Z,0.70
2019-01-13T23:21:07.729Z,0.87
2019-01-13T23:24:16.789Z,1.10
2019-01-13T23:27:25.922Z,1.00
2019-01-13T23:30:35.037Z,1.20
2019-01-13T23:33:36.542Z,1.30
2019-01-13T23:36:18.484Z,1.60
2019-01-13T23:39:01.258Z,1.17
2019-01-13T23:41:43.814Z,1.10
2019-01-13T23:44:25.941Z,1.33
2019-01-13T23:47:08.621Z,1.83
2019-01-13T23:49:50.925Z,1.50
2019-01-13T23:52:33.477Z,2.20
2019-01-13T23:55:16.241Z,1.90
2019-01-13T23:57:58.465Z,1.97
